sensor_id;sensor_type;location;lat;lon;timestamp;P1;durP1;ratioP1;P2;durP2;ratioP2
16973;SDS011;8603;46.944;7.412;2023-07-22T00:00:40;5.25;;;3.08;;
16973;SDS011;8603;46.944;7.412;2023-07-22T00:03:05;4.57;;;2.95;;
16973;SDS011;8603;46.944;7.412;2023-07-22T00:05:31;3.53;;;2.92;;
16973;SDS011;8603;46.944;7.412;2023-07-22T00:07:56;5.05;;;2.95;;
16973;SDS011;8603;46.944;7.412;2023-07-22T00:10:22;4.53;;;3.00;;
16973;SDS011;8603;46.944;7.412;2023-07-22T00:12:47;4.72;;;2.97;;
16973;SDS011;8603;46.944;7.412;2023-07-22T00:15:13;5.15;;;3.20;;
16973;SDS011;8603;46.944;7.412;2023-07-22T00:17:39;3.22;;;2.90;;
16973;SDS011;8603;46.944;7.412;2023-07-22T00:20:06;6.38;;;3.65;;
16973;SDS011;8603;46.944;7.412;2023-07-22T00:22:35;3.88;;;2.92;;
16973;SDS011;8603;46.944;7.412;2023-07-22T00:25:02;4.90;;;3.08;;
16973;SDS011;8603;46.944;7.412;2023-07-22T00:27:28;4.95;;;3.35;;
16973;SDS011;8603;46.944;7.412;2023-07-22T00:29:56;3.80;;;2.83;;
16973;SDS011;8603;46.944;7.412;2023-07-22T00:32:21;3.67;;;3.03;;
16973;SDS011;8603;46.944;7.412;2023-07-22T00:34:47;3.42;;;3.03;;
16973;SDS011;8603;46.944;7.412;2023-07-22T00:37:13;3.47;;;2.60;;
16973;SDS011;8603;46.944;7.412;2023-07-22T00:39:38;3.97;;;3.13;;
16973;SDS011;8603;46.944;7.412;2023-07-22T00:42:04;4.47;;;2.78;;
16973;SDS011;8603;46.944;7.412;2023-07-22T00:44:30;3.42;;;2.85;;
16973;SDS011;8603;46.944;7.412;2023-07-22T00:46:56;4.45;;;3.20;;
16973;SDS011;8603;46.944;7.412;2023-07-22T00:49:22;4.13;;;3.00;;
16973;SDS011;8603;46.944;7.412;2023-07-22T00:51:50;5.82;;;3.22;;
16973;SDS011;8603;46.944;7.412;2023-07-22T00:54:16;3.38;;;3.03;;
16973;SDS011;8603;46.944;7.412;2023-07-22T00:56:41;3.00;;;2.67;;
16973;SDS011;8603;46.944;7.412;2023-07-22T00:59:09;3.55;;;2.58;;
16973;SDS011;8603;46.944;7.412;2023-07-22T01:01:35;4.03;;;3.05;;
16973;SDS011;8603;46.944;7.412;2023-07-22T01:04:00;4.45;;;3.15;;
16973;SDS011;8603;46.944;7.412;2023-07-22T01:06:26;4.13;;;2.83;;
16973;SDS011;8603;46.944;7.412;2023-07-22T01:08:55;5.97;;;3.50;;
16973;SDS011;8603;46.944;7.412;2023-07-22T01:11:22;4.35;;;3.22;;
16973;SDS011;8603;46.944;7.412;2023-07-22T01:13:47;3.83;;;2.90;;
16973;SDS011;8603;46.944;7.412;2023-07-22T01:16:13;3.67;;;3.20;;
16973;SDS011;8603;46.944;7.412;2023-07-22T01:18:38;3.30;;;2.70;;
16973;SDS011;8603;46.944;7.412;2023-07-22T01:21:05;4.90;;;2.95;;
16973;SDS011;8603;46.944;7.412;2023-07-22T01:23:31;3.33;;;2.90;;
16973;SDS011;8603;46.944;7.412;2023-07-22T01:26:00;4.70;;;2.90;;
16973;SDS011;8603;46.944;7.412;2023-07-22T01:28:27;5.10;;;3.08;;
16973;SDS011;8603;46.944;7.412;2023-07-22T01:30:53;3.03;;;2.65;;
16973;SDS011;8603;46.944;7.412;2023-07-22T01:33:19;4.93;;;3.15;;
16973;SDS011;8603;46.944;7.412;2023-07-22T01:35:44;5.40;;;3.22;;
16973;SDS011;8603;46.944;7.412;2023-07-22T01:38:10;4.43;;;2.78;;
16973;SDS011;8603;46.944;7.412;2023-07-22T01:40:36;4.25;;;3.10;;
16973;SDS011;8603;46.944;7.412;2023-07-22T01:43:01;3.63;;;3.25;;
16973;SDS011;8603;46.944;7.412;2023-07-22T01:45:27;4.20;;;3.40;;
16973;SDS011;8603;46.944;7.412;2023-07-22T01:47:55;3.45;;;3.00;;
16973;SDS011;8603;46.944;7.412;2023-07-22T01:50:21;3.53;;;3.00;;
16973;SDS011;8603;46.944;7.412;2023-07-22T01:52:50;3.42;;;3.13;;
16973;SDS011;8603;46.944;7.412;2023-07-22T01:55:16;3.70;;;2.75;;
16973;SDS011;8603;46.944;7.412;2023-07-22T01:57:41;4.65;;;2.92;;
16973;SDS011;8603;46.944;7.412;2023-07-22T02:00:09;3.42;;;3.00;;
16973;SDS011;8603;46.944;7.412;2023-07-22T02:02:40;7.75;;;3.67;;
16973;SDS011;8603;46.944;7.412;2023-07-22T02:05:07;3.67;;;3.15;;
16973;SDS011;8603;46.944;7.412;2023-07-22T02:07:35;4.53;;;3.33;;
16973;SDS011;8603;46.944;7.412;2023-07-22T02:10:01;3.42;;;2.83;;
16973;SDS011;8603;46.944;7.412;2023-07-22T02:12:27;4.50;;;3.45;;
16973;SDS011;8603;46.944;7.412;2023-07-22T02:14:55;5.72;;;3.40;;
16973;SDS011;8603;46.944;7.412;2023-07-22T02:17:21;4.45;;;3.40;;
16973;SDS011;8603;46.944;7.412;2023-07-22T02:19:47;3.72;;;3.08;;
16973;SDS011;8603;46.944;7.412;2023-07-22T02:22:15;5.15;;;3.30;;
16973;SDS011;8603;46.944;7.412;2023-07-22T02:24:41;4.10;;;3.63;;
16973;SDS011;8603;46.944;7.412;2023-07-22T02:27:06;6.70;;;3.83;;
16973;SDS011;8603;46.944;7.412;2023-07-22T02:29:33;4.78;;;3.20;;
16973;SDS011;8603;46.944;7.412;2023-07-22T02:31:59;4.20;;;2.90;;
16973;SDS011;8603;46.944;7.412;2023-07-22T02:34:26;4.38;;;3.40;;
16973;SDS011;8603;46.944;7.412;2023-07-22T02:36:51;5.50;;;3.30;;
16973;SDS011;8603;46.944;7.412;2023-07-22T02:39:17;4.63;;;3.30;;
16973;SDS011;8603;46.944;7.412;2023-07-22T02:41:42;5.30;;;3.38;;
16973;SDS011;8603;46.944;7.412;2023-07-22T02:44:08;3.50;;;3.20;;
16973;SDS011;8603;46.944;7.412;2023-07-22T02:46:33;5.40;;;3.33;;
16973;SDS011;8603;46.944;7.412;2023-07-22T02:48:59;4.70;;;3.42;;
16973;SDS011;8603;46.944;7.412;2023-07-22T02:51:24;3.55;;;3.17;;
16973;SDS011;8603;46.944;7.412;2023-07-22T02:53:50;4.82;;;3.60;;
16973;SDS011;8603;46.944;7.412;2023-07-22T02:56:16;5.32;;;3.72;;
16973;SDS011;8603;46.944;7.412;2023-07-22T02:58:41;3.63;;;3.10;;
16973;SDS011;8603;46.944;7.412;2023-07-22T03:01:07;4.78;;;3.70;;
16973;SDS011;8603;46.944;7.412;2023-07-22T03:03:34;3.65;;;3.33;;
16973;SDS011;8603;46.944;7.412;2023-07-22T03:06:00;6.45;;;3.80;;
16973;SDS011;8603;46.944;7.412;2023-07-22T03:08:27;4.15;;;3.60;;
16973;SDS011;8603;46.944;7.412;2023-07-22T03:10:55;4.65;;;3.95;;
16973;SDS011;8603;46.944;7.412;2023-07-22T03:13:21;7.72;;;3.80;;
16973;SDS011;8603;46.944;7.412;2023-07-22T03:15:46;6.68;;;3.78;;
16973;SDS011;8603;46.944;7.412;2023-07-22T03:18:12;4.22;;;3.65;;
16973;SDS011;8603;46.944;7.412;2023-07-22T03:20:38;5.53;;;4.10;;
16973;SDS011;8603;46.944;7.412;2023-07-22T03:23:05;7.25;;;4.00;;
16973;SDS011;8603;46.944;7.412;2023-07-22T03:25:31;4.22;;;3.55;;
16973;SDS011;8603;46.944;7.412;2023-07-22T03:27:59;4.38;;;3.97;;
16973;SDS011;8603;46.944;7.412;2023-07-22T03:30:29;4.65;;;3.47;;
16973;SDS011;8603;46.944;7.412;2023-07-22T03:32:55;4.78;;;3.80;;
16973;SDS011;8603;46.944;7.412;2023-07-22T03:35:21;6.57;;;4.72;;
16973;SDS011;8603;46.944;7.412;2023-07-22T03:37:46;4.95;;;4.15;;
16973;SDS011;8603;46.944;7.412;2023-07-22T03:40:12;6.38;;;3.80;;
16973;SDS011;8603;46.944;7.412;2023-07-22T03:42:51;4.93;;;3.75;;
16973;SDS011;8603;46.944;7.412;2023-07-22T03:45:18;5.53;;;3.53;;
16973;SDS011;8603;46.944;7.412;2023-07-22T03:47:45;4.68;;;4.15;;
16973;SDS011;8603;46.944;7.412;2023-07-22T03:50:12;7.15;;;4.40;;
16973;SDS011;8603;46.944;7.412;2023-07-22T03:52:38;5.13;;;4.22;;
16973;SDS011;8603;46.944;7.412;2023-07-22T03:55:04;4.35;;;3.95;;
16973;SDS011;8603;46.944;7.412;2023-07-22T03:57:30;4.47;;;4.07;;
16973;SDS011;8603;46.944;7.412;2023-07-22T03:59:56;5.50;;;4.30;;
16973;SDS011;8603;46.944;7.412;2023-07-22T04:02:23;4.95;;;4.47;;
16973;SDS011;8603;46.944;7.412;2023-07-22T04:04:50;5.38;;;4.38;;
16973;SDS011;8603;46.944;7.412;2023-07-22T04:07:17;5.75;;;4.43;;
16973;SDS011;8603;46.944;7.412;2023-07-22T04:09:43;4.50;;;3.97;;
16973;SDS011;8603;46.944;7.412;2023-07-22T04:12:09;5.07;;;4.57;;
16973;SDS011;8603;46.944;7.412;2023-07-22T04:14:35;5.45;;;4.00;;
16973;SDS011;8603;46.944;7.412;2023-07-22T04:17:01;6.77;;;4.40;;
16973;SDS011;8603;46.944;7.412;2023-07-22T04:19:26;4.57;;;3.90;;
16973;SDS011;8603;46.944;7.412;2023-07-22T04:21:52;5.30;;;4.13;;
16973;SDS011;8603;46.944;7.412;2023-07-22T04:24:17;6.22;;;4.30;;
16973;SDS011;8603;46.944;7.412;2023-07-22T04:26:44;5.15;;;3.88;;
16973;SDS011;8603;46.944;7.412;2023-07-22T04:29:10;5.60;;;3.75;;
16973;SDS011;8603;46.944;7.412;2023-07-22T04:31:38;5.85;;;3.60;;
16973;SDS011;8603;46.944;7.412;2023-07-22T04:34:04;4.28;;;3.80;;
16973;SDS011;8603;46.944;7.412;2023-07-22T04:36:33;4.20;;;3.80;;
16973;SDS011;8603;46.944;7.412;2023-07-22T04:39:01;5.15;;;3.60;;
16973;SDS011;8603;46.944;7.412;2023-07-22T04:41:29;4.70;;;3.65;;
16973;SDS011;8603;46.944;7.412;2023-07-22T04:43:56;4.60;;;4.20;;
16973;SDS011;8603;46.944;7.412;2023-07-22T04:46:23;4.97;;;3.70;;
16973;SDS011;8603;46.944;7.412;2023-07-22T04:48:50;4.72;;;3.60;;
16973;SDS011;8603;46.944;7.412;2023-07-22T04:51:23;4.20;;;3.70;;
16973;SDS011;8603;46.944;7.412;2023-07-22T04:53:48;4.45;;;4.05;;
16973;SDS011;8603;46.944;7.412;2023-07-22T04:56:14;3.92;;;3.53;;
16973;SDS011;8603;46.944;7.412;2023-07-22T04:58:40;3.47;;;3.17;;
16973;SDS011;8603;46.944;7.412;2023-07-22T05:01:05;5.22;;;3.53;;
16973;SDS011;8603;46.944;7.412;2023-07-22T05:03:31;4.35;;;3.67;;
16973;SDS011;8603;46.944;7.412;2023-07-22T05:05:56;4.00;;;3.20;;
16973;SDS011;8603;46.944;7.412;2023-07-22T05:08:23;5.25;;;3.60;;
16973;SDS011;8603;46.944;7.412;2023-07-22T05:10:48;3.85;;;3.40;;
16973;SDS011;8603;46.944;7.412;2023-07-22T05:13:14;4.28;;;3.80;;
16973;SDS011;8603;46.944;7.412;2023-07-22T05:15:40;4.15;;;3.22;;
16973;SDS011;8603;46.944;7.412;2023-07-22T05:18:05;5.03;;;3.30;;
16973;SDS011;8603;46.944;7.412;2023-07-22T05:20:31;4.57;;;3.70;;
16973;SDS011;8603;46.944;7.412;2023-07-22T05:22:56;4.88;;;3.40;;
16973;SDS011;8603;46.944;7.412;2023-07-22T05:25:22;3.05;;;2.75;;
16973;SDS011;8603;46.944;7.412;2023-07-22T05:27:49;5.15;;;3.22;;
16973;SDS011;8603;46.944;7.412;2023-07-22T05:30:14;3.97;;;3.22;;
16973;SDS011;8603;46.944;7.412;2023-07-22T05:32:40;5.20;;;3.42;;
16973;SDS011;8603;46.944;7.412;2023-07-22T05:35:05;4.32;;;3.47;;
16973;SDS011;8603;46.944;7.412;2023-07-22T05:37:31;6.07;;;3.13;;
16973;SDS011;8603;46.944;7.412;2023-07-22T05:39:57;3.45;;;3.10;;
16973;SDS011;8603;46.944;7.412;2023-07-22T05:42:22;3.75;;;3.10;;
16973;SDS011;8603;46.944;7.412;2023-07-22T05:44:48;6.05;;;3.53;;
16973;SDS011;8603;46.944;7.412;2023-07-22T05:47:14;5.60;;;3.28;;
16973;SDS011;8603;46.944;7.412;2023-07-22T05:49:39;5.60;;;3.08;;
16973;SDS011;8603;46.944;7.412;2023-07-22T05:52:05;4.47;;;3.22;;
16973;SDS011;8603;46.944;7.412;2023-07-22T05:54:31;3.95;;;3.10;;
16973;SDS011;8603;46.944;7.412;2023-07-22T05:56:56;3.13;;;2.83;;
16973;SDS011;8603;46.944;7.412;2023-07-22T05:59:22;3.25;;;2.70;;
16973;SDS011;8603;46.944;7.412;2023-07-22T06:01:47;3.70;;;3.03;;
16973;SDS011;8603;46.944;7.412;2023-07-22T06:04:13;4.57;;;2.60;;
16973;SDS011;8603;46.944;7.412;2023-07-22T06:06:39;3.05;;;2.60;;
16973;SDS011;8603;46.944;7.412;2023-07-22T06:09:04;5.15;;;2.90;;
16973;SDS011;8603;46.944;7.412;2023-07-22T06:11:30;3.60;;;2.90;;
16973;SDS011;8603;46.944;7.412;2023-07-22T06:13:55;5.65;;;3.00;;
16973;SDS011;8603;46.944;7.412;2023-07-22T06:16:21;3.60;;;2.75;;
16973;SDS011;8603;46.944;7.412;2023-07-22T06:18:47;6.00;;;3.10;;
16973;SDS011;8603;46.944;7.412;2023-07-22T06:21:13;3.78;;;2.75;;
16973;SDS011;8603;46.944;7.412;2023-07-22T06:23:38;4.55;;;2.92;;
16973;SDS011;8603;46.944;7.412;2023-07-22T06:26:04;2.85;;;2.50;;
16973;SDS011;8603;46.944;7.412;2023-07-22T06:28:29;3.00;;;2.50;;
16973;SDS011;8603;46.944;7.412;2023-07-22T06:30:55;4.63;;;2.90;;
16973;SDS011;8603;46.944;7.412;2023-07-22T06:33:22;3.67;;;2.42;;
16973;SDS011;8603;46.944;7.412;2023-07-22T06:35:47;4.25;;;2.65;;
16973;SDS011;8603;46.944;7.412;2023-07-22T06:38:13;3.72;;;2.50;;
16973;SDS011;8603;46.944;7.412;2023-07-22T06:40:38;2.85;;;2.25;;
16973;SDS011;8603;46.944;7.412;2023-07-22T06:43:04;3.75;;;2.53;;
16973;SDS011;8603;46.944;7.412;2023-07-22T06:45:31;5.55;;;2.85;;
16973;SDS011;8603;46.944;7.412;2023-07-22T06:47:57;3.70;;;2.90;;
16973;SDS011;8603;46.944;7.412;2023-07-22T06:50:22;2.90;;;2.60;;
16973;SDS011;8603;46.944;7.412;2023-07-22T06:52:48;3.65;;;2.88;;
16973;SDS011;8603;46.944;7.412;2023-07-22T06:55:14;4.68;;;2.42;;
16973;SDS011;8603;46.944;7.412;2023-07-22T06:57:39;2.80;;;2.30;;
16973;SDS011;8603;46.944;7.412;2023-07-22T07:00:05;2.60;;;2.13;;
16973;SDS011;8603;46.944;7.412;2023-07-22T07:02:31;3.50;;;2.33;;
16973;SDS011;8603;46.944;7.412;2023-07-22T07:04:57;4.00;;;2.60;;
16973;SDS011;8603;46.944;7.412;2023-07-22T07:07:23;3.30;;;2.30;;
16973;SDS011;8603;46.944;7.412;2023-07-22T07:09:48;2.40;;;2.20;;
16973;SDS011;8603;46.944;7.412;2023-07-22T07:12:14;3.72;;;2.20;;
16973;SDS011;8603;46.944;7.412;2023-07-22T07:14:39;2.53;;;2.30;;
16973;SDS011;8603;46.944;7.412;2023-07-22T07:17:05;3.22;;;2.47;;
16973;SDS011;8603;46.944;7.412;2023-07-22T07:19:31;3.08;;;2.00;;
16973;SDS011;8603;46.944;7.412;2023-07-22T07:21:56;3.50;;;2.40;;
16973;SDS011;8603;46.944;7.412;2023-07-22T07:24:22;3.20;;;2.13;;
16973;SDS011;8603;46.944;7.412;2023-07-22T07:26:48;2.60;;;2.38;;
16973;SDS011;8603;46.944;7.412;2023-07-22T07:29:13;2.60;;;2.10;;
16973;SDS011;8603;46.944;7.412;2023-07-22T07:31:39;2.50;;;2.30;;
16973;SDS011;8603;46.944;7.412;2023-07-22T07:34:04;2.42;;;2.05;;
16973;SDS011;8603;46.944;7.412;2023-07-22T07:36:31;5.13;;;2.33;;
16973;SDS011;8603;46.944;7.412;2023-07-22T07:38:58;2.63;;;2.38;;
16973;SDS011;8603;46.944;7.412;2023-07-22T07:41:23;2.33;;;2.13;;
16973;SDS011;8603;46.944;7.412;2023-07-22T07:43:49;2.95;;;2.20;;
16973;SDS011;8603;46.944;7.412;2023-07-22T07:46:20;3.13;;;2.10;;
16973;SDS011;8603;46.944;7.412;2023-07-22T07:48:51;2.20;;;1.88;;
16973;SDS011;8603;46.944;7.412;2023-07-22T07:51:18;4.25;;;2.42;;
16973;SDS011;8603;46.944;7.412;2023-07-22T07:53:45;2.45;;;2.25;;
16973;SDS011;8603;46.944;7.412;2023-07-22T07:56:14;2.83;;;2.30;;
16973;SDS011;8603;46.944;7.412;2023-07-22T07:58:41;4.15;;;2.38;;
16973;SDS011;8603;46.944;7.412;2023-07-22T08:01:07;2.53;;;2.28;;
16973;SDS011;8603;46.944;7.412;2023-07-22T08:03:33;3.05;;;2.20;;
16973;SDS011;8603;46.944;7.412;2023-07-22T08:06:00;3.28;;;2.47;;
16973;SDS011;8603;46.944;7.412;2023-07-22T08:08:26;2.50;;;2.25;;
16973;SDS011;8603;46.944;7.412;2023-07-22T08:11:05;3.10;;;2.38;;
16973;SDS011;8603;46.944;7.412;2023-07-22T08:13:35;2.53;;;2.33;;
16973;SDS011;8603;46.944;7.412;2023-07-22T08:16:02;2.33;;;2.00;;
16973;SDS011;8603;46.944;7.412;2023-07-22T08:18:29;2.47;;;2.03;;
16973;SDS011;8603;46.944;7.412;2023-07-22T08:20:55;2.45;;;2.10;;
16973;SDS011;8603;46.944;7.412;2023-07-22T08:23:22;2.05;;;1.73;;
16973;SDS011;8603;46.944;7.412;2023-07-22T08:25:48;1.90;;;1.75;;
16973;SDS011;8603;46.944;7.412;2023-07-22T08:28:14;1.83;;;1.73;;
16973;SDS011;8603;46.944;7.412;2023-07-22T08:30:40;1.90;;;1.65;;
16973;SDS011;8603;46.944;7.412;2023-07-22T08:33:15;1.90;;;1.70;;
16973;SDS011;8603;46.944;7.412;2023-07-22T08:35:42;1.88;;;1.48;;
16973;SDS011;8603;46.944;7.412;2023-07-22T08:38:08;2.00;;;1.80;;
16973;SDS011;8603;46.944;7.412;2023-07-22T08:40:34;1.70;;;1.60;;
16973;SDS011;8603;46.944;7.412;2023-07-22T08:43:01;2.00;;;1.48;;
16973;SDS011;8603;46.944;7.412;2023-07-22T08:45:29;3.05;;;1.80;;
16973;SDS011;8603;46.944;7.412;2023-07-22T08:48:02;1.80;;;1.70;;
16973;SDS011;8603;46.944;7.412;2023-07-22T08:50:33;2.28;;;1.67;;
16973;SDS011;8603;46.944;7.412;2023-07-22T08:53:20;2.22;;;1.83;;
16973;SDS011;8603;46.944;7.412;2023-07-22T08:55:46;2.05;;;1.67;;
16973;SDS011;8603;46.944;7.412;2023-07-22T08:58:15;1.60;;;1.50;;
16973;SDS011;8603;46.944;7.412;2023-07-22T09:00:41;1.77;;;1.60;;
16973;SDS011;8603;46.944;7.412;2023-07-22T09:03:08;2.22;;;1.50;;
16973;SDS011;8603;46.944;7.412;2023-07-22T09:05:35;1.50;;;1.40;;
16973;SDS011;8603;46.944;7.412;2023-07-22T09:08:02;3.92;;;1.50;;
16973;SDS011;8603;46.944;7.412;2023-07-22T09:10:29;1.90;;;1.70;;
16973;SDS011;8603;46.944;7.412;2023-07-22T09:12:56;3.78;;;1.50;;
16973;SDS011;8603;46.944;7.412;2023-07-22T09:15:22;2.83;;;1.60;;
16973;SDS011;8603;46.944;7.412;2023-07-22T09:17:48;5.38;;;3.08;;
16973;SDS011;8603;46.944;7.412;2023-07-22T09:20:14;2.38;;;1.58;;
16973;SDS011;8603;46.944;7.412;2023-07-22T09:22:47;1.67;;;1.58;;
16973;SDS011;8603;46.944;7.412;2023-07-22T09:27:42;1.65;;;1.50;;
16973;SDS011;8603;46.944;7.412;2023-07-22T09:30:27;2.00;;;1.80;;
16973;SDS011;8603;46.944;7.412;2023-07-22T09:32:59;4.13;;;1.80;;
16973;SDS011;8603;46.944;7.412;2023-07-22T09:35:29;1.60;;;1.50;;
16973;SDS011;8603;46.944;7.412;2023-07-22T09:37:56;1.77;;;1.42;;
16973;SDS011;8603;46.944;7.412;2023-07-22T09:40:24;2.13;;;1.80;;
16973;SDS011;8603;46.944;7.412;2023-07-22T09:42:51;1.70;;;1.60;;
16973;SDS011;8603;46.944;7.412;2023-07-22T09:45:22;1.60;;;1.50;;
16973;SDS011;8603;46.944;7.412;2023-07-22T09:47:49;1.90;;;1.70;;
16973;SDS011;8603;46.944;7.412;2023-07-22T09:50:17;1.60;;;1.50;;
16973;SDS011;8603;46.944;7.412;2023-07-22T09:52:48;1.90;;;1.75;;
16973;SDS011;8603;46.944;7.412;2023-07-22T09:55:16;2.28;;;1.80;;
16973;SDS011;8603;46.944;7.412;2023-07-22T09:57:56;3.70;;;2.03;;
16973;SDS011;8603;46.944;7.412;2023-07-22T10:00:24;3.25;;;1.90;;
16973;SDS011;8603;46.944;7.412;2023-07-22T10:02:53;1.65;;;1.55;;
16973;SDS011;8603;46.944;7.412;2023-07-22T10:05:21;3.42;;;1.95;;
16973;SDS011;8603;46.944;7.412;2023-07-22T10:10:19;1.70;;;1.60;;
16973;SDS011;8603;46.944;7.412;2023-07-22T10:12:48;2.20;;;1.77;;
16973;SDS011;8603;46.944;7.412;2023-07-22T10:15:14;3.22;;;1.35;;
16973;SDS011;8603;46.944;7.412;2023-07-22T10:17:42;3.30;;;1.65;;
16973;SDS011;8603;46.944;7.412;2023-07-22T10:20:10;1.90;;;1.80;;
16973;SDS011;8603;46.944;7.412;2023-07-22T10:22:45;2.00;;;1.80;;
16973;SDS011;8603;46.944;7.412;2023-07-22T10:25:12;2.30;;;1.67;;
16973;SDS011;8603;46.944;7.412;2023-07-22T10:27:39;1.65;;;1.55;;
16973;SDS011;8603;46.944;7.412;2023-07-22T10:30:06;1.73;;;1.60;;
16973;SDS011;8603;46.944;7.412;2023-07-22T10:32:36;1.70;;;1.60;;
16973;SDS011;8603;46.944;7.412;2023-07-22T10:35:02;1.70;;;1.60;;
16973;SDS011;8603;46.944;7.412;2023-07-22T10:37:32;2.40;;;1.60;;
16973;SDS011;8603;46.944;7.412;2023-07-22T10:40:44;2.53;;;1.80;;
16973;SDS011;8603;46.944;7.412;2023-07-22T10:42:57;3.25;;;2.20;;
16973;SDS011;8603;46.944;7.412;2023-07-22T10:45:32;2.00;;;1.70;;
16973;SDS011;8603;46.944;7.412;2023-07-22T10:50:37;1.75;;;1.65;;
16973;SDS011;8603;46.944;7.412;2023-07-22T10:53:05;1.98;;;1.80;;
16973;SDS011;8603;46.944;7.412;2023-07-22T10:55:33;1.90;;;1.80;;
16973;SDS011;8603;46.944;7.412;2023-07-22T10:58:55;2.50;;;1.73;;
16973;SDS011;8603;46.944;7.412;2023-07-22T11:04:05;2.20;;;1.77;;
16973;SDS011;8603;46.944;7.412;2023-07-22T11:06:36;1.88;;;1.73;;
16973;SDS011;8603;46.944;7.412;2023-07-22T11:11:52;1.80;;;1.70;;
16973;SDS011;8603;46.944;7.412;2023-07-22T11:14:22;1.90;;;1.77;;
16973;SDS011;8603;46.944;7.412;2023-07-22T11:16:49;2.00;;;1.80;;
16973;SDS011;8603;46.944;7.412;2023-07-22T11:19:16;1.70;;;1.60;;
16973;SDS011;8603;46.944;7.412;2023-07-22T11:21:43;1.73;;;1.63;;
16973;SDS011;8603;46.944;7.412;2023-07-22T11:24:10;1.73;;;1.63;;
16973;SDS011;8603;46.944;7.412;2023-07-22T11:26:35;2.85;;;1.77;;
16973;SDS011;8603;46.944;7.412;2023-07-22T11:29:03;1.67;;;1.50;;
16973;SDS011;8603;46.944;7.412;2023-07-22T11:31:36;3.20;;;1.90;;
16973;SDS011;8603;46.944;7.412;2023-07-22T11:34:15;2.17;;;1.95;;
16973;SDS011;8603;46.944;7.412;2023-07-22T11:36:42;1.95;;;1.70;;
16973;SDS011;8603;46.944;7.412;2023-07-22T11:39:09;1.67;;;1.50;;
16973;SDS011;8603;46.944;7.412;2023-07-22T11:41:37;2.03;;;1.70;;
16973;SDS011;8603;46.944;7.412;2023-07-22T11:44:03;2.00;;;1.75;;
16973;SDS011;8603;46.944;7.412;2023-07-22T11:49:30;2.15;;;1.27;;
16973;SDS011;8603;46.944;7.412;2023-07-22T11:52:02;2.72;;;1.60;;
16973;SDS011;8603;46.944;7.412;2023-07-22T11:54:29;2.47;;;1.55;;
16973;SDS011;8603;46.944;7.412;2023-07-22T11:56:56;1.92;;;1.60;;
16973;SDS011;8603;46.944;7.412;2023-07-22T11:59:37;2.20;;;1.90;;
16973;SDS011;8603;46.944;7.412;2023-07-22T12:02:04;1.92;;;1.83;;
16973;SDS011;8603;46.944;7.412;2023-07-22T12:04:31;1.60;;;1.50;;
16973;SDS011;8603;46.944;7.412;2023-07-22T12:06:58;2.08;;;1.73;;
16973;SDS011;8603;46.944;7.412;2023-07-22T12:09:24;1.58;;;1.45;;
16973;SDS011;8603;46.944;7.412;2023-07-22T12:11:54;2.10;;;1.88;;
16973;SDS011;8603;46.944;7.412;2023-07-22T12:14:22;1.83;;;1.65;;
16973;SDS011;8603;46.944;7.412;2023-07-22T12:16:47;1.70;;;1.60;;
16973;SDS011;8603;46.944;7.412;2023-07-22T12:19:22;2.08;;;1.88;;
16973;SDS011;8603;46.944;7.412;2023-07-22T12:21:47;2.05;;;1.90;;
16973;SDS011;8603;46.944;7.412;2023-07-22T12:24:14;1.83;;;1.65;;
16973;SDS011;8603;46.944;7.412;2023-07-22T12:26:39;1.65;;;1.40;;
16973;SDS011;8603;46.944;7.412;2023-07-22T12:29:05;2.45;;;1.70;;
16973;SDS011;8603;46.944;7.412;2023-07-22T12:31:33;2.03;;;1.83;;
16973;SDS011;8603;46.944;7.412;2023-07-22T12:33:58;2.35;;;1.77;;
16973;SDS011;8603;46.944;7.412;2023-07-22T12:36:28;2.00;;;1.80;;
16973;SDS011;8603;46.944;7.412;2023-07-22T12:38:53;3.10;;;1.60;;
16973;SDS011;8603;46.944;7.412;2023-07-22T12:41:19;2.60;;;1.83;;
16973;SDS011;8603;46.944;7.412;2023-07-22T12:43:44;2.53;;;1.70;;
16973;SDS011;8603;46.944;7.412;2023-07-22T12:46:10;1.50;;;1.40;;
16973;SDS011;8603;46.944;7.412;2023-07-22T12:48:35;2.67;;;1.70;;
16973;SDS011;8603;46.944;7.412;2023-07-22T12:51:01;2.63;;;1.60;;
16973;SDS011;8603;46.944;7.412;2023-07-22T12:53:27;1.95;;;1.83;;
16973;SDS011;8603;46.944;7.412;2023-07-22T12:55:53;2.92;;;1.80;;
16973;SDS011;8603;46.944;7.412;2023-07-22T12:58:19;2.63;;;1.70;;
16973;SDS011;8603;46.944;7.412;2023-07-22T13:00:44;2.35;;;2.15;;
16973;SDS011;8603;46.944;7.412;2023-07-22T13:03:10;2.05;;;1.88;;
16973;SDS011;8603;46.944;7.412;2023-07-22T13:05:35;2.17;;;1.80;;
16973;SDS011;8603;46.944;7.412;2023-07-22T13:08:01;2.33;;;1.85;;
16973;SDS011;8603;46.944;7.412;2023-07-22T13:10:27;2.17;;;1.83;;
16973;SDS011;8603;46.944;7.412;2023-07-22T13:12:56;1.50;;;1.40;;
16973;SDS011;8603;46.944;7.412;2023-07-22T13:15:22;2.03;;;1.83;;
16973;SDS011;8603;46.944;7.412;2023-07-22T13:17:48;2.65;;;2.20;;
16973;SDS011;8603;46.944;7.412;2023-07-22T13:20:13;1.95;;;1.75;;
16973;SDS011;8603;46.944;7.412;2023-07-22T13:22:39;2.05;;;1.85;;
16973;SDS011;8603;46.944;7.412;2023-07-22T13:25:05;1.73;;;1.63;;
16973;SDS011;8603;46.944;7.412;2023-07-22T13:27:31;1.75;;;1.65;;
16973;SDS011;8603;46.944;7.412;2023-07-22T13:29:57;1.85;;;1.60;;
16973;SDS011;8603;46.944;7.412;2023-07-22T13:32:22;2.38;;;1.88;;
16973;SDS011;8603;46.944;7.412;2023-07-22T13:34:48;3.08;;;2.00;;
16973;SDS011;8603;46.944;7.412;2023-07-22T13:37:14;3.10;;;2.38;;
16973;SDS011;8603;46.944;7.412;2023-07-22T13:39:39;1.95;;;1.80;;
16973;SDS011;8603;46.944;7.412;2023-07-22T13:42:05;1.88;;;1.67;;
16973;SDS011;8603;46.944;7.412;2023-07-22T13:44:31;2.80;;;1.97;;
16973;SDS011;8603;46.944;7.412;2023-07-22T13:46:56;1.70;;;1.60;;
16973;SDS011;8603;46.944;7.412;2023-07-22T13:49:22;1.77;;;1.67;;
16973;SDS011;8603;46.944;7.412;2023-07-22T13:51:47;1.90;;;1.70;;
16973;SDS011;8603;46.944;7.412;2023-07-22T13:54:13;1.95;;;1.77;;
16973;SDS011;8603;46.944;7.412;2023-07-22T13:56:39;1.70;;;1.60;;
16973;SDS011;8603;46.944;7.412;2023-07-22T13:59:04;2.00;;;1.80;;
16973;SDS011;8603;46.944;7.412;2023-07-22T14:01:31;2.00;;;1.85;;
16973;SDS011;8603;46.944;7.412;2023-07-22T14:03:56;2.22;;;2.03;;
16973;SDS011;8603;46.944;7.412;2023-07-22T14:06:22;1.60;;;1.50;;
16973;SDS011;8603;46.944;7.412;2023-07-22T14:08:48;1.88;;;1.77;;
16973;SDS011;8603;46.944;7.412;2023-07-22T14:11:13;2.40;;;2.03;;
16973;SDS011;8603;46.944;7.412;2023-07-22T14:13:39;1.80;;;1.70;;
16973;SDS011;8603;46.944;7.412;2023-07-22T14:16:04;1.98;;;1.77;;
16973;SDS011;8603;46.944;7.412;2023-07-22T14:18:30;3.92;;;2.10;;
16973;SDS011;8603;46.944;7.412;2023-07-22T14:20:55;2.50;;;1.70;;
16973;SDS011;8603;46.944;7.412;2023-07-22T14:23:21;3.38;;;2.03;;
16973;SDS011;8603;46.944;7.412;2023-07-22T14:25:47;2.63;;;2.08;;
16973;SDS011;8603;46.944;7.412;2023-07-22T14:28:12;1.90;;;1.70;;
16973;SDS011;8603;46.944;7.412;2023-07-22T14:30:38;2.33;;;1.83;;
16973;SDS011;8603;46.944;7.412;2023-07-22T14:33:03;2.38;;;1.73;;
16973;SDS011;8603;46.944;7.412;2023-07-22T14:35:29;1.98;;;1.70;;
16973;SDS011;8603;46.944;7.412;2023-07-22T14:37:57;2.05;;;1.85;;
16973;SDS011;8603;46.944;7.412;2023-07-22T14:40:23;3.03;;;1.77;;
16973;SDS011;8603;46.944;7.412;2023-07-22T14:42:49;3.17;;;1.70;;
16973;SDS011;8603;46.944;7.412;2023-07-22T14:45:15;3.17;;;2.00;;
16973;SDS011;8603;46.944;7.412;2023-07-22T14:47:40;2.58;;;2.00;;
16973;SDS011;8603;46.944;7.412;2023-07-22T14:50:06;2.22;;;2.03;;
16973;SDS011;8603;46.944;7.412;2023-07-22T14:52:32;1.90;;;1.80;;
16973;SDS011;8603;46.944;7.412;2023-07-22T14:54:57;2.03;;;1.83;;
16973;SDS011;8603;46.944;7.412;2023-07-22T14:57:23;2.10;;;1.90;;
16973;SDS011;8603;46.944;7.412;2023-07-22T14:59:54;1.70;;;1.50;;
16973;SDS011;8603;46.944;7.412;2023-07-22T15:02:20;3.30;;;1.90;;
16973;SDS011;8603;46.944;7.412;2023-07-22T15:04:46;2.72;;;1.70;;
16973;SDS011;8603;46.944;7.412;2023-07-22T15:07:12;2.10;;;1.90;;
16973;SDS011;8603;46.944;7.412;2023-07-22T15:09:37;1.92;;;1.73;;
16973;SDS011;8603;46.944;7.412;2023-07-22T15:12:03;2.55;;;1.77;;
16973;SDS011;8603;46.944;7.412;2023-07-22T15:14:29;2.10;;;1.83;;